sensor_id;sensor_type;location;lat;lon;timestamp;P1;durP1;ratioP1;P2;durP2;ratioP2
71176;SDS011;58877;51.992;4.504;2022-12-18T00:01:46;40.08;;;35.74;;
71176;SDS011;58877;51.992;4.504;2022-12-18T00:04:15;39.39;;;35.13;;
71176;SDS011;58877;51.992;4.504;2022-12-18T00:06:46;40.67;;;35.88;;
71176;SDS011;58877;51.992;4.504;2022-12-18T00:09:11;41.38;;;36.29;;
71176;SDS011;58877;51.992;4.504;2022-12-18T00:11:37;40.42;;;35.90;;
71176;SDS011;58877;51.992;4.504;2022-12-18T00:14:04;40.16;;;35.39;;
71176;SDS011;58877;51.992;4.504;2022-12-18T00:16:29;38.67;;;34.63;;
71176;SDS011;58877;51.992;4.504;2022-12-18T00:18:58;38.93;;;34.91;;
71176;SDS011;58877;51.992;4.504;2022-12-18T00:21:25;40.67;;;36.05;;
71176;SDS011;58877;51.992;4.504;2022-12-18T00:23:52;40.51;;;36.10;;
71176;SDS011;58877;51.992;4.504;2022-12-18T00:26:21;40.64;;;35.94;;
71176;SDS011;58877;51.992;4.504;2022-12-18T00:28:48;40.70;;;36.02;;
71176;SDS011;58877;51.992;4.504;2022-12-18T00:31:19;42.78;;;37.56;;
71176;SDS011;58877;51.992;4.504;2022-12-18T00:33:46;42.33;;;37.43;;
71176;SDS011;58877;51.992;4.504;2022-12-18T00:36:17;41.55;;;36.69;;
71176;SDS011;58877;51.992;4.504;2022-12-18T00:38:45;41.71;;;37.24;;
71176;SDS011;58877;51.992;4.504;2022-12-18T00:41:12;42.60;;;37.42;;
71176;SDS011;58877;51.992;4.504;2022-12-18T00:44:00;43.01;;;37.85;;
71176;SDS011;58877;51.992;4.504;2022-12-18T00:46:27;41.78;;;36.89;;
71176;SDS011;58877;51.992;4.504;2022-12-18T00:48:52;43.40;;;38.05;;
71176;SDS011;58877;51.992;4.504;2022-12-18T00:51:18;44.03;;;38.49;;
71176;SDS011;58877;51.992;4.504;2022-12-18T00:53:43;43.44;;;37.80;;
71176;SDS011;58877;51.992;4.504;2022-12-18T00:56:09;43.69;;;38.15;;
71176;SDS011;58877;51.992;4.504;2022-12-18T00:58:37;45.80;;;39.42;;
71176;SDS011;58877;51.992;4.504;2022-12-18T01:01:05;45.48;;;39.24;;
71176;SDS011;58877;51.992;4.504;2022-12-18T01:03:31;44.36;;;38.42;;
71176;SDS011;58877;51.992;4.504;2022-12-18T01:05:56;44.72;;;38.87;;
71176;SDS011;58877;51.992;4.504;2022-12-18T01:08:22;42.47;;;37.45;;
71176;SDS011;58877;51.992;4.504;2022-12-18T01:10:48;45.16;;;38.96;;
71176;SDS011;58877;51.992;4.504;2022-12-18T01:13:14;45.00;;;38.33;;
71176;SDS011;58877;51.992;4.504;2022-12-18T01:15:40;46.29;;;39.36;;
71176;SDS011;58877;51.992;4.504;2022-12-18T01:18:06;45.16;;;38.50;;
71176;SDS011;58877;51.992;4.504;2022-12-18T01:20:32;43.93;;;38.26;;
71176;SDS011;58877;51.992;4.504;2022-12-18T01:22:58;41.01;;;36.40;;
71176;SDS011;58877;51.992;4.504;2022-12-18T01:25:23;43.66;;;38.17;;
71176;SDS011;58877;51.992;4.504;2022-12-18T01:27:50;43.82;;;37.65;;
71176;SDS011;58877;51.992;4.504;2022-12-18T01:30:16;44.26;;;38.21;;
71176;SDS011;58877;51.992;4.504;2022-12-18T01:32:41;43.08;;;37.61;;
71176;SDS011;58877;51.992;4.504;2022-12-18T01:35:07;41.94;;;36.96;;
71176;SDS011;58877;51.992;4.504;2022-12-18T01:37:33;43.05;;;38.09;;
71176;SDS011;58877;51.992;4.504;2022-12-18T01:39:59;43.65;;;38.24;;
71176;SDS011;58877;51.992;4.504;2022-12-18T01:42:24;42.55;;;37.10;;
71176;SDS011;58877;51.992;4.504;2022-12-18T01:45:04;42.14;;;37.03;;
71176;SDS011;58877;51.992;4.504;2022-12-18T01:47:57;46.14;;;39.02;;
71176;SDS011;58877;51.992;4.504;2022-12-18T01:50:34;42.22;;;36.64;;
71176;SDS011;58877;51.992;4.504;2022-12-18T01:53:05;42.79;;;37.23;;
71176;SDS011;58877;51.992;4.504;2022-12-18T01:55:40;41.95;;;36.79;;
71176;SDS011;58877;51.992;4.504;2022-12-18T01:58:10;43.36;;;37.44;;
71176;SDS011;58877;51.992;4.504;2022-12-18T02:00:36;44.38;;;38.43;;
71176;SDS011;58877;51.992;4.504;2022-12-18T02:03:02;42.58;;;37.03;;
71176;SDS011;58877;51.992;4.504;2022-12-18T02:13:20;42.57;;;37.22;;
71176;SDS011;58877;51.992;4.504;2022-12-18T02:16:09;41.38;;;36.83;;
71176;SDS011;58877;51.992;4.504;2022-12-18T02:18:50;39.68;;;35.84;;
71176;SDS011;58877;51.992;4.504;2022-12-18T02:21:28;42.38;;;37.50;;
71176;SDS011;58877;51.992;4.504;2022-12-18T02:24:13;39.86;;;35.76;;
71176;SDS011;58877;51.992;4.504;2022-12-18T02:27:02;40.61;;;36.53;;
71176;SDS011;58877;51.992;4.504;2022-12-18T02:29:45;40.74;;;35.66;;
71176;SDS011;58877;51.992;4.504;2022-12-18T02:32:20;40.24;;;35.55;;
71176;SDS011;58877;51.992;4.504;2022-12-18T02:34:57;41.62;;;36.66;;
71176;SDS011;58877;51.992;4.504;2022-12-18T02:37:27;41.31;;;36.22;;
71176;SDS011;58877;51.992;4.504;2022-12-18T02:39:56;39.66;;;35.55;;
71176;SDS011;58877;51.992;4.504;2022-12-18T02:42:25;41.65;;;36.66;;
71176;SDS011;58877;51.992;4.504;2022-12-18T02:44:52;39.18;;;35.08;;
71176;SDS011;58877;51.992;4.504;2022-12-18T02:47:23;39.25;;;34.41;;
71176;SDS011;58877;51.992;4.504;2022-12-18T02:54:56;34.80;;;31.65;;
71176;SDS011;58877;51.992;4.504;2022-12-18T02:57:30;35.79;;;32.24;;
71176;SDS011;58877;51.992;4.504;2022-12-18T03:00:10;34.68;;;31.57;;
71176;SDS011;58877;51.992;4.504;2022-12-18T03:05:30;34.93;;;31.24;;
71176;SDS011;58877;51.992;4.504;2022-12-18T03:08:14;34.12;;;31.53;;
71176;SDS011;58877;51.992;4.504;2022-12-18T03:10:53;34.80;;;31.29;;
71176;SDS011;58877;51.992;4.504;2022-12-18T03:13:33;32.96;;;30.23;;
71176;SDS011;58877;51.992;4.504;2022-12-18T03:16:05;34.66;;;31.44;;
71176;SDS011;58877;51.992;4.504;2022-12-18T03:21:07;34.11;;;31.13;;
71176;SDS011;58877;51.992;4.504;2022-12-18T03:23:43;34.38;;;31.28;;
71176;SDS011;58877;51.992;4.504;2022-12-18T03:26:15;35.39;;;31.29;;
71176;SDS011;58877;51.992;4.504;2022-12-18T03:28:47;35.31;;;31.55;;
71176;SDS011;58877;51.992;4.504;2022-12-18T03:31:18;33.32;;;30.65;;
71176;SDS011;58877;51.992;4.504;2022-12-18T03:33:54;34.85;;;31.53;;
71176;SDS011;58877;51.992;4.504;2022-12-18T03:36:24;31.96;;;29.24;;
71176;SDS011;58877;51.992;4.504;2022-12-18T03:38:50;33.23;;;30.10;;
71176;SDS011;58877;51.992;4.504;2022-12-18T03:41:42;32.44;;;29.64;;
71176;SDS011;58877;51.992;4.504;2022-12-18T03:44:36;33.33;;;30.38;;
71176;SDS011;58877;51.992;4.504;2022-12-18T03:50:02;34.87;;;31.14;;
71176;SDS011;58877;51.992;4.504;2022-12-18T03:52:59;34.26;;;30.79;;
71176;SDS011;58877;51.992;4.504;2022-12-18T03:55:35;33.98;;;30.65;;
71176;SDS011;58877;51.992;4.504;2022-12-18T03:58:02;34.40;;;30.99;;
71176;SDS011;58877;51.992;4.504;2022-12-18T04:00:32;35.70;;;31.83;;
71176;SDS011;58877;51.992;4.504;2022-12-18T04:02:59;35.04;;;31.07;;
71176;SDS011;58877;51.992;4.504;2022-12-18T04:05:28;36.40;;;32.08;;
71176;SDS011;58877;51.992;4.504;2022-12-18T04:07:58;37.74;;;33.03;;
71176;SDS011;58877;51.992;4.504;2022-12-18T04:10:24;37.33;;;33.13;;
71176;SDS011;58877;51.992;4.504;2022-12-18T04:12:50;34.92;;;31.00;;
71176;SDS011;58877;51.992;4.504;2022-12-18T04:15:15;33.98;;;30.31;;
71176;SDS011;58877;51.992;4.504;2022-12-18T04:17:45;34.06;;;30.58;;
71176;SDS011;58877;51.992;4.504;2022-12-18T04:20:13;33.70;;;30.33;;
71176;SDS011;58877;51.992;4.504;2022-12-18T04:22:39;33.71;;;30.71;;
71176;SDS011;58877;51.992;4.504;2022-12-18T04:25:05;33.25;;;29.88;;
71176;SDS011;58877;51.992;4.504;2022-12-18T04:27:31;34.26;;;30.74;;
71176;SDS011;58877;51.992;4.504;2022-12-18T04:29:57;33.24;;;29.76;;
71176;SDS011;58877;51.992;4.504;2022-12-18T04:32:22;34.88;;;31.26;;
71176;SDS011;58877;51.992;4.504;2022-12-18T04:34:48;33.88;;;30.38;;
71176;SDS011;58877;51.992;4.504;2022-12-18T04:37:13;32.57;;;29.88;;
71176;SDS011;58877;51.992;4.504;2022-12-18T04:39:39;31.80;;;29.13;;
71176;SDS011;58877;51.992;4.504;2022-12-18T04:42:05;34.40;;;31.17;;
71176;SDS011;58877;51.992;4.504;2022-12-18T04:44:30;33.19;;;29.90;;
71176;SDS011;58877;51.992;4.504;2022-12-18T04:46:56;32.15;;;29.50;;
71176;SDS011;58877;51.992;4.504;2022-12-18T04:49:22;32.02;;;29.51;;
71176;SDS011;58877;51.992;4.504;2022-12-18T04:51:47;30.90;;;28.66;;
71176;SDS011;58877;51.992;4.504;2022-12-18T04:54:13;29.65;;;27.53;;
71176;SDS011;58877;51.992;4.504;2022-12-18T04:56:39;30.45;;;28.18;;
71176;SDS011;58877;51.992;4.504;2022-12-18T04:59:05;28.28;;;26.64;;
71176;SDS011;58877;51.992;4.504;2022-12-18T05:01:34;28.10;;;26.73;;
71176;SDS011;58877;51.992;4.504;2022-12-18T05:04:03;28.83;;;26.85;;
71176;SDS011;58877;51.992;4.504;2022-12-18T05:06:28;28.96;;;27.08;;
71176;SDS011;58877;51.992;4.504;2022-12-18T05:08:54;29.68;;;27.98;;
71176;SDS011;58877;51.992;4.504;2022-12-18T05:11:20;28.12;;;26.38;;
71176;SDS011;58877;51.992;4.504;2022-12-18T05:13:46;30.15;;;28.03;;
71176;SDS011;58877;51.992;4.504;2022-12-18T05:16:14;28.64;;;27.23;;
71176;SDS011;58877;51.992;4.504;2022-12-18T05:18:40;29.65;;;27.77;;
71176;SDS011;58877;51.992;4.504;2022-12-18T05:21:06;27.13;;;25.96;;
71176;SDS011;58877;51.992;4.504;2022-12-18T05:23:32;29.23;;;27.36;;
71176;SDS011;58877;51.992;4.504;2022-12-18T05:25:58;29.98;;;28.07;;
71176;SDS011;58877;51.992;4.504;2022-12-18T05:28:26;27.73;;;26.51;;
71176;SDS011;58877;51.992;4.504;2022-12-18T05:30:56;29.21;;;27.63;;
71176;SDS011;58877;51.992;4.504;2022-12-18T05:33:24;29.16;;;27.56;;
71176;SDS011;58877;51.992;4.504;2022-12-18T05:35:52;28.49;;;26.80;;
71176;SDS011;58877;51.992;4.504;2022-12-18T05:38:20;28.42;;;26.64;;
71176;SDS011;58877;51.992;4.504;2022-12-18T05:40:49;28.74;;;26.96;;
71176;SDS011;58877;51.992;4.504;2022-12-18T05:43:16;28.93;;;27.12;;
71176;SDS011;58877;51.992;4.504;2022-12-18T05:45:42;30.60;;;28.23;;
71176;SDS011;58877;51.992;4.504;2022-12-18T05:48:08;28.60;;;27.14;;
71176;SDS011;58877;51.992;4.504;2022-12-18T05:50:35;29.93;;;28.08;;
71176;SDS011;58877;51.992;4.504;2022-12-18T05:53:01;29.79;;;27.86;;
71176;SDS011;58877;51.992;4.504;2022-12-18T05:55:28;28.61;;;26.99;;
71176;SDS011;58877;51.992;4.504;2022-12-18T05:57:53;28.49;;;26.88;;
71176;SDS011;58877;51.992;4.504;2022-12-18T06:00:19;29.53;;;27.86;;
71176;SDS011;58877;51.992;4.504;2022-12-18T06:02:48;29.71;;;27.75;;
71176;SDS011;58877;51.992;4.504;2022-12-18T06:05:13;28.92;;;27.02;;
71176;SDS011;58877;51.992;4.504;2022-12-18T06:07:39;28.52;;;27.01;;
71176;SDS011;58877;51.992;4.504;2022-12-18T06:10:04;29.41;;;27.57;;
71176;SDS011;58877;51.992;4.504;2022-12-18T06:12:30;28.30;;;26.81;;
71176;SDS011;58877;51.992;4.504;2022-12-18T06:14:56;27.08;;;25.79;;
71176;SDS011;58877;51.992;4.504;2022-12-18T06:17:21;27.93;;;26.53;;
71176;SDS011;58877;51.992;4.504;2022-12-18T06:19:47;28.38;;;26.42;;
71176;SDS011;58877;51.992;4.504;2022-12-18T06:22:12;28.90;;;27.03;;
71176;SDS011;58877;51.992;4.504;2022-12-18T06:24:38;28.58;;;26.89;;
71176;SDS011;58877;51.992;4.504;2022-12-18T06:27:03;27.54;;;26.09;;
71176;SDS011;58877;51.992;4.504;2022-12-18T06:29:29;27.61;;;26.39;;
71176;SDS011;58877;51.992;4.504;2022-12-18T06:31:55;27.96;;;26.71;;
71176;SDS011;58877;51.992;4.504;2022-12-18T06:34:20;26.58;;;25.51;;
71176;SDS011;58877;51.992;4.504;2022-12-18T06:36:46;27.33;;;26.02;;
71176;SDS011;58877;51.992;4.504;2022-12-18T06:39:11;26.49;;;25.13;;
71176;SDS011;58877;51.992;4.504;2022-12-18T06:41:37;26.29;;;25.14;;
71176;SDS011;58877;51.992;4.504;2022-12-18T06:44:02;25.28;;;24.11;;
71176;SDS011;58877;51.992;4.504;2022-12-18T06:46:28;26.21;;;24.71;;
71176;SDS011;58877;51.992;4.504;2022-12-18T06:48:54;25.37;;;23.96;;
71176;SDS011;58877;51.992;4.504;2022-12-18T06:51:20;27.31;;;25.46;;
71176;SDS011;58877;51.992;4.504;2022-12-18T06:53:47;25.30;;;24.15;;
71176;SDS011;58877;51.992;4.504;2022-12-18T06:56:14;24.52;;;23.72;;
71176;SDS011;58877;51.992;4.504;2022-12-18T06:58:41;25.38;;;24.28;;
71176;SDS011;58877;51.992;4.504;2022-12-18T07:01:08;24.69;;;23.63;;
71176;SDS011;58877;51.992;4.504;2022-12-18T07:03:36;25.14;;;24.15;;
71176;SDS011;58877;51.992;4.504;2022-12-18T07:06:02;23.04;;;22.52;;
71176;SDS011;58877;51.992;4.504;2022-12-18T07:08:29;25.44;;;24.41;;
71176;SDS011;58877;51.992;4.504;2022-12-18T07:10:55;23.08;;;22.25;;
71176;SDS011;58877;51.992;4.504;2022-12-18T07:13:21;23.67;;;22.90;;
71176;SDS011;58877;51.992;4.504;2022-12-18T07:15:47;23.69;;;22.95;;
71176;SDS011;58877;51.992;4.504;2022-12-18T07:18:13;22.92;;;22.07;;
71176;SDS011;58877;51.992;4.504;2022-12-18T07:20:38;23.03;;;22.17;;
71176;SDS011;58877;51.992;4.504;2022-12-18T07:23:04;22.07;;;21.44;;
71176;SDS011;58877;51.992;4.504;2022-12-18T07:25:33;21.77;;;21.29;;
71176;SDS011;58877;51.992;4.504;2022-12-18T07:28:02;22.20;;;21.55;;
71176;SDS011;58877;51.992;4.504;2022-12-18T07:30:29;21.20;;;20.70;;
71176;SDS011;58877;51.992;4.504;2022-12-18T07:32:54;22.55;;;21.88;;
71176;SDS011;58877;51.992;4.504;2022-12-18T07:35:20;22.34;;;21.67;;
71176;SDS011;58877;51.992;4.504;2022-12-18T07:37:46;21.91;;;21.09;;
71176;SDS011;58877;51.992;4.504;2022-12-18T07:40:12;21.74;;;20.95;;
71176;SDS011;58877;51.992;4.504;2022-12-18T07:42:37;21.16;;;20.63;;
71176;SDS011;58877;51.992;4.504;2022-12-18T07:45:03;21.30;;;20.85;;
71176;SDS011;58877;51.992;4.504;2022-12-18T07:47:35;20.67;;;20.09;;
71176;SDS011;58877;51.992;4.504;2022-12-18T07:50:02;22.08;;;21.16;;
71176;SDS011;58877;51.992;4.504;2022-12-18T07:52:28;22.26;;;21.32;;
71176;SDS011;58877;51.992;4.504;2022-12-18T07:54:53;21.10;;;20.53;;
71176;SDS011;58877;51.992;4.504;2022-12-18T07:57:19;21.02;;;20.37;;
71176;SDS011;58877;51.992;4.504;2022-12-18T07:59:45;20.37;;;19.86;;
71176;SDS011;58877;51.992;4.504;2022-12-18T08:02:10;20.67;;;20.16;;
71176;SDS011;58877;51.992;4.504;2022-12-18T08:04:36;20.04;;;19.47;;
71176;SDS011;58877;51.992;4.504;2022-12-18T08:07:01;20.47;;;19.86;;
71176;SDS011;58877;51.992;4.504;2022-12-18T08:09:27;20.99;;;20.24;;
71176;SDS011;58877;51.992;4.504;2022-12-18T08:11:52;20.44;;;20.03;;
71176;SDS011;58877;51.992;4.504;2022-12-18T08:14:18;20.37;;;19.87;;
71176;SDS011;58877;51.992;4.504;2022-12-18T08:16:44;20.85;;;20.13;;
71176;SDS011;58877;51.992;4.504;2022-12-18T08:19:10;20.42;;;19.94;;
71176;SDS011;58877;51.992;4.504;2022-12-18T08:21:35;20.57;;;20.10;;
71176;SDS011;58877;51.992;4.504;2022-12-18T08:24:02;19.75;;;19.30;;
71176;SDS011;58877;51.992;4.504;2022-12-18T08:26:30;20.29;;;19.69;;
71176;SDS011;58877;51.992;4.504;2022-12-18T08:29:06;20.56;;;20.05;;
71176;SDS011;58877;51.992;4.504;2022-12-18T08:31:31;19.91;;;19.62;;
71176;SDS011;58877;51.992;4.504;2022-12-18T08:33:58;19.39;;;19.09;;
71176;SDS011;58877;51.992;4.504;2022-12-18T08:36:26;19.20;;;18.78;;
71176;SDS011;58877;51.992;4.504;2022-12-18T08:38:55;18.51;;;18.34;;
71176;SDS011;58877;51.992;4.504;2022-12-18T08:41:21;19.30;;;18.92;;
71176;SDS011;58877;51.992;4.504;2022-12-18T08:43:47;19.23;;;18.71;;
71176;SDS011;58877;51.992;4.504;2022-12-18T08:46:33;19.01;;;18.59;;
71176;SDS011;58877;51.992;4.504;2022-12-18T08:49:02;19.56;;;19.15;;
71176;SDS011;58877;51.992;4.504;2022-12-18T08:51:29;18.55;;;18.18;;
71176;SDS011;58877;51.992;4.504;2022-12-18T08:53:54;18.59;;;18.11;;
71176;SDS011;58877;51.992;4.504;2022-12-18T08:56:20;19.63;;;19.21;;
71176;SDS011;58877;51.992;4.504;2022-12-18T08:58:50;18.60;;;18.36;;
71176;SDS011;58877;51.992;4.504;2022-12-18T09:01:17;18.52;;;18.21;;
71176;SDS011;58877;51.992;4.504;2022-12-18T09:03:43;18.38;;;18.06;;
71176;SDS011;58877;51.992;4.504;2022-12-18T09:06:08;19.29;;;18.82;;
71176;SDS011;58877;51.992;4.504;2022-12-18T09:08:34;19.03;;;18.47;;
71176;SDS011;58877;51.992;4.504;2022-12-18T09:11:01;18.96;;;18.44;;
71176;SDS011;58877;51.992;4.504;2022-12-18T09:13:27;19.15;;;18.68;;
71176;SDS011;58877;51.992;4.504;2022-12-18T09:15:53;18.93;;;18.63;;
71176;SDS011;58877;51.992;4.504;2022-12-18T09:18:20;18.77;;;18.37;;
71176;SDS011;58877;51.992;4.504;2022-12-18T09:20:48;18.25;;;17.78;;
71176;SDS011;58877;51.992;4.504;2022-12-18T09:23:18;18.75;;;18.41;;
71176;SDS011;58877;51.992;4.504;2022-12-18T09:25:44;18.68;;;18.26;;
71176;SDS011;58877;51.992;4.504;2022-12-18T09:28:17;18.90;;;18.54;;
71176;SDS011;58877;51.992;4.504;2022-12-18T09:30:45;19.96;;;19.28;;
71176;SDS011;58877;51.992;4.504;2022-12-18T09:33:15;18.41;;;18.12;;
71176;SDS011;58877;51.992;4.504;2022-12-18T09:35:42;19.21;;;18.79;;
71176;SDS011;58877;51.992;4.504;2022-12-18T09:38:14;19.55;;;19.04;;
71176;SDS011;58877;51.992;4.504;2022-12-18T09:40:48;18.67;;;18.33;;
71176;SDS011;58877;51.992;4.504;2022-12-18T09:46:19;18.47;;;18.12;;
71176;SDS011;58877;51.992;4.504;2022-12-18T09:48:54;18.94;;;18.63;;
71176;SDS011;58877;51.992;4.504;2022-12-18T09:51:27;18.28;;;17.93;;
71176;SDS011;58877;51.992;4.504;2022-12-18T09:54:02;17.76;;;17.51;;
71176;SDS011;58877;51.992;4.504;2022-12-18T09:56:40;17.93;;;17.75;;
71176;SDS011;58877;51.992;4.504;2022-12-18T09:59:14;18.92;;;18.50;;
71176;SDS011;58877;51.992;4.504;2022-12-18T10:01:46;18.26;;;17.85;;
71176;SDS011;58877;51.992;4.504;2022-12-18T10:04:11;18.67;;;18.36;;
71176;SDS011;58877;51.992;4.504;2022-12-18T10:12:02;18.78;;;18.40;;
71176;SDS011;58877;51.992;4.504;2022-12-18T10:14:41;19.58;;;19.19;;
71176;SDS011;58877;51.992;4.504;2022-12-18T10:17:30;18.18;;;17.92;;
71176;SDS011;58877;51.992;4.504;2022-12-18T10:23:08;18.57;;;18.29;;
71176;SDS011;58877;51.992;4.504;2022-12-18T10:28:32;19.26;;;18.91;;
71176;SDS011;58877;51.992;4.504;2022-12-18T10:31:00;19.04;;;18.70;;
71176;SDS011;58877;51.992;4.504;2022-12-18T10:33:30;18.53;;;18.13;;
71176;SDS011;58877;51.992;4.504;2022-12-18T10:35:59;18.89;;;18.54;;
71176;SDS011;58877;51.992;4.504;2022-12-18T10:38:28;19.28;;;18.91;;
71176;SDS011;58877;51.992;4.504;2022-12-18T10:41:04;18.71;;;18.33;;
71176;SDS011;58877;51.992;4.504;2022-12-18T10:43:37;18.51;;;18.09;;
71176;SDS011;58877;51.992;4.504;2022-12-18T10:48:47;19.45;;;19.02;;
71176;SDS011;58877;51.992;4.504;2022-12-18T10:51:22;18.88;;;18.57;;
71176;SDS011;58877;51.992;4.504;2022-12-18T10:53:55;19.02;;;18.76;;
71176;SDS011;58877;51.992;4.504;2022-12-18T10:56:28;19.65;;;19.45;;
71176;SDS011;58877;51.992;4.504;2022-12-18T10:59:10;20.16;;;19.89;;
71176;SDS011;58877;51.992;4.504;2022-12-18T11:01:48;20.62;;;20.17;;
71176;SDS011;58877;51.992;4.504;2022-12-18T11:04:17;19.78;;;19.64;;
71176;SDS011;58877;51.992;4.504;2022-12-18T11:07:19;18.60;;;18.35;;
71176;SDS011;58877;51.992;4.504;2022-12-18T11:09:38;18.50;;;18.19;;
71176;SDS011;58877;51.992;4.504;2022-12-18T11:12:15;17.79;;;17.62;;
71176;SDS011;58877;51.992;4.504;2022-12-18T11:17:22;17.60;;;17.35;;
71176;SDS011;58877;51.992;4.504;2022-12-18T11:20:00;18.34;;;18.14;;
71176;SDS011;58877;51.992;4.504;2022-12-18T11:22:35;17.89;;;17.67;;
71176;SDS011;58877;51.992;4.504;2022-12-18T11:25:07;17.95;;;17.69;;
71176;SDS011;58877;51.992;4.504;2022-12-18T11:28:04;17.81;;;17.62;;
71176;SDS011;58877;51.992;4.504;2022-12-18T11:30:54;17.46;;;17.25;;
71176;SDS011;58877;51.992;4.504;2022-12-18T11:36:52;18.84;;;18.38;;
71176;SDS011;58877;51.992;4.504;2022-12-18T11:39:24;19.52;;;19.04;;
71176;SDS011;58877;51.992;4.504;2022-12-18T11:44:48;18.57;;;18.26;;
71176;SDS011;58877;51.992;4.504;2022-12-18T11:47:28;19.09;;;18.83;;
71176;SDS011;58877;51.992;4.504;2022-12-18T11:50:17;19.43;;;19.18;;
71176;SDS011;58877;51.992;4.504;2022-12-18T11:52:47;19.46;;;19.16;;
71176;SDS011;58877;51.992;4.504;2022-12-18T11:55:14;19.39;;;19.17;;
71176;SDS011;58877;51.992;4.504;2022-12-18T12:00:20;19.08;;;18.87;;
71176;SDS011;58877;51.992;4.504;2022-12-18T12:03:00;19.34;;;19.16;;
71176;SDS011;58877;51.992;4.504;2022-12-18T12:08:36;20.10;;;19.82;;
71176;SDS011;58877;51.992;4.504;2022-12-18T12:11:22;20.25;;;19.93;;
71176;SDS011;58877;51.992;4.504;2022-12-18T12:14:13;20.14;;;19.83;;
71176;SDS011;58877;51.992;4.504;2022-12-18T12:19:33;19.41;;;19.25;;
71176;SDS011;58877;51.992;4.504;2022-12-18T12:22:18;19.53;;;19.28;;
71176;SDS011;58877;51.992;4.504;2022-12-18T12:25:05;18.49;;;18.17;;
71176;SDS011;58877;51.992;4.504;2022-12-18T12:33:52;19.24;;;18.87;;
71176;SDS011;58877;51.992;4.504;2022-12-18T12:39:21;20.39;;;19.99;;
71176;SDS011;58877;51.992;4.504;2022-12-18T12:41:55;19.25;;;19.03;;
71176;SDS011;58877;51.992;4.504;2022-12-18T12:44:43;19.07;;;18.74;;
71176;SDS011;58877;51.992;4.504;2022-12-18T12:47:25;18.98;;;18.86;;
71176;SDS011;58877;51.992;4.504;2022-12-18T12:50:03;19.16;;;18.89;;
71176;SDS011;58877;51.992;4.504;2022-12-18T12:52:42;19.45;;;19.11;;
71176;SDS011;58877;51.992;4.504;2022-12-18T12:55:24;20.17;;;19.89;;
71176;SDS011;58877;51.992;4.504;2022-12-18T13:00:35;19.77;;;19.61;;
71176;SDS011;58877;51.992;4.504;2022-12-18T13:03:19;18.38;;;18.20;;
71176;SDS011;58877;51.992;4.504;2022-12-18T13:06:13;18.77;;;18.59;;
71176;SDS011;58877;51.992;4.504;2022-12-18T13:08:59;18.91;;;18.45;;
71176;SDS011;58877;51.992;4.504;2022-12-18T13:11:42;18.72;;;18.37;;
71176;SDS011;58877;51.992;4.504;2022-12-18T13:14:30;20.05;;;19.57;;
71176;SDS011;58877;51.992;4.504;2022-12-18T13:20:04;20.18;;;19.78;;
71176;SDS011;58877;51.992;4.504;2022-12-18T13:22:46;19.24;;;18.90;;
71176;SDS011;58877;51.992;4.504;2022-12-18T13:27:56;19.79;;;19.45;;
71176;SDS011;58877;51.992;4.504;2022-12-18T13:38:40;19.48;;;19.23;;
71176;SDS011;58877;51.992;4.504;2022-12-18T13:43:54;20.82;;;20.37;;
71176;SDS011;58877;51.992;4.504;2022-12-18T13:46:45;19.90;;;19.60;;
71176;SDS011;58877;51.992;4.504;2022-12-18T13:51:56;21.22;;;20.87;;
71176;SDS011;58877;51.992;4.504;2022-12-18T13:57:31;19.82;;;19.56;;
71176;SDS011;58877;51.992;4.504;2022-12-18T14:02:47;19.04;;;18.81;;
71176;SDS011;58877;51.992;4.504;2022-12-18T14:05:31;20.21;;;19.78;;
71176;SDS011;58877;51.992;4.504;2022-12-18T14:08:08;18.86;;;18.67;;
71176;SDS011;58877;51.992;4.504;2022-12-18T14:14:00;18.67;;;18.50;;
71176;SDS011;58877;51.992;4.504;2022-12-18T14:16:26;18.11;;;17.94;;
71176;SDS011;58877;51.992;4.504;2022-12-18T14:18:54;19.64;;;19.43;;
71176;SDS011;58877;51.992;4.504;2022-12-18T14:24:13;19.29;;;19.05;;
71176;SDS011;58877;51.992;4.504;2022-12-18T14:26:44;19.96;;;19.73;;
71176;SDS011;58877;51.992;4.504;2022-12-18T14:29:22;19.90;;;19.59;;
71176;SDS011;58877;51.992;4.504;2022-12-18T14:32:09;19.20;;;19.04;;
71176;SDS011;58877;51.992;4.504;2022-12-18T14:34:39;20.03;;;19.80;;
71176;SDS011;58877;51.992;4.504;2022-12-18T14:37:05;19.85;;;19.54;;
71176;SDS011;58877;51.992;4.504;2022-12-18T14:39:37;19.03;;;18.79;;
71176;SDS011;58877;51.992;4.504;2022-12-18T14:42:10;19.77;;;19.52;;
71176;SDS011;58877;51.992;4.504;2022-12-18T14:44:36;19.89;;;19.52;;
71176;SDS011;58877;51.992;4.504;2022-12-18T14:47:02;20.03;;;19.79;;
71176;SDS011;58877;51.992;4.504;2022-12-18T14:49:31;20.37;;;20.07;;
71176;SDS011;58877;51.992;4.504;2022-12-18T14:52:03;20.26;;;19.87;;
71176;SDS011;58877;51.992;4.504;2022-12-18T14:54:45;20.32;;;20.03;;
71176;SDS011;58877;51.992;4.504;2022-12-18T14:57:25;19.54;;;19.23;;
71176;SDS011;58877;51.992;4.504;2022-12-18T15:00:05;20.44;;;20.08;;
71176;SDS011;58877;51.992;4.504;2022-12-18T15:02:36;20.25;;;19.91;;
71176;SDS011;58877;51.992;4.504;2022-12-18T15:05:16;20.78;;;20.53;;
71176;SDS011;58877;51.992;4.504;2022-12-18T15:10:12;20.00;;;19.58;;
71176;SDS011;58877;51.992;4.504;2022-12-18T15:12:42;20.86;;;20.57;;
71176;SDS011;58877;51.992;4.504;2022-12-18T15:20:52;20.39;;;20.14;;
71176;SDS011;58877;51.992;4.504;2022-12-18T15:23:46;20.27;;;20.05;;
71176;SDS011;58877;51.992;4.504;2022-12-18T15:26:18;20.93;;;20.58;;
71176;SDS011;58877;51.992;4.504;2022-12-18T15:36:17;20.87;;;20.45;;
71176;SDS011;58877;51.992;4.504;2022-12-18T15:38:48;20.68;;;20.35;;
71176;SDS011;58877;51.992;4.504;2022-12-18T15:41:16;21.12;;;20.79;;
71176;SDS011;58877;51.992;4.504;2022-12-18T15:43:47;20.81;;;20.46;;
71176;SDS011;58877;51.992;4.504;2022-12-18T15:46:16;19.65;;;19.39;;
71176;SDS011;58877;51.992;4.504;2022-12-18T15:48:45;20.64;;;20.27;;
71176;SDS011;58877;51.992;4.504;2022-12-18T15:53:47;19.76;;;19.38;;
71176;SDS011;58877;51.992;4.504;2022-12-18T15:56:15;20.50;;;20.09;;
71176;SDS011;58877;51.992;4.504;2022-12-18T15:59:00;21.02;;;20.40;;
71176;SDS011;58877;51.992;4.504;2022-12-18T16:01:27;20.49;;;20.15;;
71176;SDS011;58877;51.992;4.504;2022-12-18T16:03:56;20.62;;;20.40;;
71176;SDS011;58877;51.992;4.504;2022-12-18T16:06:22;19.75;;;19.35;;
71176;SDS011;58877;51.992;4.504;2022-12-18T16:08:51;18.82;;;18.64;;
71176;SDS011;58877;51.992;4.504;2022-12-18T16:14:08;19.57;;;19.34;;
71176;SDS011;58877;51.992;4.504;2022-12-18T16:16:50;18.87;;;18.62;;
71176;SDS011;58877;51.992;4.504;2022-12-18T16:19:18;19.11;;;18.71;;
71176;SDS011;58877;51.992;4.504;2022-12-18T16:21:44;19.41;;;19.05;;
71176;SDS011;58877;51.992;4.504;2022-12-18T16:24:15;18.58;;;18.38;;
71176;SDS011;58877;51.992;4.504;2022-12-18T16:26:47;19.93;;;19.68;;
71176;SDS011;58877;51.992;4.504;2022-12-18T16:29:17;19.90;;;19.54;;
71176;SDS011;58877;51.992;4.504;2022-12-18T16:31:44;18.42;;;18.30;;
71176;SDS011;58877;51.992;4.504;2022-12-18T16:34:18;19.23;;;19.03;;
71176;SDS011;58877;51.992;4.504;2022-12-18T16:36:52;20.04;;;19.61;;
71176;SDS011;58877;51.992;4.504;2022-12-18T16:39:18;19.46;;;19.13;;
71176;SDS011;58877;51.992;4.504;2022-12-18T16:41:45;19.92;;;19.58;;